Time;durP1;ratioP1;P1;durP2;ratioP2;P2;SDS_P1;SDS_P2;PMS_P1;PMS_P2;Temp;Humidity;BMP_temperature;BMP_pressure;BME280_temperature;BME280_humidity;BME280_pressure;Samples;Min_cycle;Max_cycle;Signal;HPM_P1;HPM_P2
2024/04/05 14:07:11;;;;;;;7.00;3.00;;;;;;;9.03;44.36;144475.34;104612;1295;558623;-67
2024/04/05 14:10:02;;;;;;;5.70;2.80;;;;;;;9.12;44.39;144498.41;105914;1282;135815;-65
2024/04/05 14:12:49;;;;;;;5.40;2.70;;;;;;;9.14;44.24;144503.41;106237;1286;26529;-61
2024/04/05 14:15:36;;;;;;;8.50;3.40;;;;;;;9.11;44.31;144496.16;106224;1287;25382;-65
2024/04/05 14:18:22;;;;;;;6.00;3.00;;;;;;;9.02;44.47;144475.34;106151;1287;22530;-68
2024/04/05 14:21:11;;;;;;;5.40;3.00;;;;;;;8.93;44.63;144452.80;106192;1287;25236;-67
2024/04/05 14:23:57;;;;;;;7.90;3.40;;;;;;;8.76;45.12;144410.20;106217;1271;22533;-64
2024/04/05 14:26:43;;;;;;;7.00;3.20;;;;;;;8.54;45.63;144357.38;106213;1287;23322;-62
2024/04/05 14:29:30;;;;;;;5.60;3.30;;;;;;;8.44;46.14;144334.08;105891;1287;22533;-67
2024/04/05 14:32:16;;;;;;;6.00;3.60;;;;;;;8.43;46.38;144330.59;106218;1273;22542;-66
2024/04/05 14:35:04;;;;;;;5.70;3.20;;;;;;;8.43;46.72;144331.08;106857;1276;24215;-66
2024/04/05 14:37:51;;;;;;;7.50;3.50;;;;;;;8.41;47.02;144325.06;106841;1263;25307;-70
2024/04/05 14:40:37;;;;;;;10.40;5.50;;;;;;;8.37;48.79;144314.25;106846;1262;22536;-67
2024/04/05 14:43:24;;;;;;;11.50;4.40;;;;;;;8.26;52.66;144287.70;106727;1276;22649;-67
2024/04/05 14:46:11;;;;;;;8.20;3.90;;;;;;;8.13;55.11;144255.42;106764;1276;25466;-68
2024/04/05 14:48:58;;;;;;;6.20;2.90;;;;;;;7.97;56.43;144219.13;106769;1253;25442;-66
2024/04/05 14:51:46;;;;;;;10.80;4.20;;;;;;;7.84;57.45;144186.33;106797;1277;24196;-67
2024/04/05 14:54:33;;;;;;;11.60;6.20;;;;;;;7.74;58.20;144161.53;106623;1277;25381;-64
2024/04/05 14:57:19;;;;;;;12.60;5.60;;;;;;;7.65;58.88;144139.53;106667;1261;22533;-71
2024/04/05 15:00:06;;;;;;;8.80;4.40;;;;;;;7.56;59.25;144119.02;106856;1270;22572;-67
2024/04/05 15:02:53;;;;;;;10.30;4.90;;;;;;;7.48;60.12;144098.22;106842;1273;25344;-65
2024/04/05 15:05:39;;;;;;;9.60;4.10;;;;;;;7.41;60.44;144079.72;106768;1259;22517;-70
2024/04/05 15:08:26;;;;;;;10.00;3.80;;;;;;;7.35;60.77;144066.20;106746;1262;24372;-65
2024/04/05 15:11:12;;;;;;;12.00;5.30;;;;;;;7.31;61.16;144055.20;106720;1259;25354;-69
2024/04/05 15:14:00;;;;;;;10.70;4.10;;;;;;;7.24;61.41;144038.94;106758;1276;24374;-67
2024/04/05 15:16:49;;;;;;;7.00;3.40;;;;;;;7.19;61.72;144026.19;106748;1276;22533;-65
2024/04/05 15:19:35;;;;;;;8.90;4.60;;;;;;;7.14;62.00;144014.67;106808;1275;25326;-64
2024/04/05 15:22:22;;;;;;;10.60;4.70;;;;;;;7.08;62.29;144000.42;106767;1269;22543;-67
2024/04/05 15:25:08;;;;;;;13.30;6.30;;;;;;;7.05;62.52;143991.94;106714;1277;22513;-64
2024/04/05 15:27:54;;;;;;;10.40;5.70;;;;;;;7.01;62.93;143982.66;106754;1270;22520;-64
2024/04/05 15:30:41;;;;;;;17.90;7.20;;;;;;;6.95;63.49;143968.91;106856;1264;22535;-64
2024/04/05 15:33:29;;;;;;;10.30;6.10;;;;;;;6.89;63.97;143953.66;106683;1277;24196;-65
2024/04/05 15:36:15;;;;;;;12.20;6.20;;;;;;;6.85;64.33;143942.41;106741;1277;25365;-63
2024/04/05 15:39:02;;;;;;;14.60;7.10;;;;;;;6.80;64.51;143929.89;106571;1277;22559;-67
2024/04/05 15:41:48;;;;;;;10.60;6.10;;;;;;;6.77;64.95;143923.39;106685;1256;22598;-66
2024/04/05 15:44:35;;;;;;;11.30;6.20;;;;;;;6.72;65.47;143911.64;106684;1277;22540;-65
2024/04/05 15:47:21;;;;;;;15.90;8.20;;;;;;;6.70;65.77;143908.13;106696;1277;24243;-64
2024/04/05 15:50:08;;;;;;;15.20;8.20;;;;;;;6.68;66.24;143903.39;106676;1277;22519;-67
2024/04/05 15:52:54;;;;;;;16.60;9.20;;;;;;;6.67;66.80;143900.14;106912;1277;22714;-69
2024/04/05 15:55:47;;;;;;;13.80;8.00;;;;;;;6.64;67.43;143891.88;107369;1277;25522;-64
2024/04/05 15:58:35;;;;;;;15.40;7.30;;;;;;;6.61;67.88;143884.61;106753;1277;22548;-69
2024/04/05 16:01:21;;;;;;;16.80;7.90;;;;;;;6.58;68.54;143877.38;106718;1277;22536;-66
2024/04/05 16:04:10;;;;;;;16.60;7.30;;;;;;;6.54;69.09;143869.13;106724;1277;22522;-66
2024/04/05 16:06:57;;;;;;;12.20;5.90;;;;;;;6.51;69.86;143861.13;106698;1277;24279;-66
2024/04/05 16:09:44;;;;;;;12.50;6.80;;;;;;;6.47;70.56;143851.13;106841;1275;22533;-65
2024/04/05 16:12:30;;;;;;;14.70;7.70;;;;;;;6.43;70.84;143841.63;106807;1276;25466;-64
2024/04/05 16:15:16;;;;;;;16.50;8.70;;;;;;;6.41;71.75;143835.13;106839;1276;22524;-68
2024/04/05 16:18:04;;;;;;;16.50;7.70;;;;;;;6.38;72.18;143827.39;106725;1276;22543;-67
2024/04/05 16:20:51;;;;;;;15.30;6.90;;;;;;;6.35;73.25;143822.38;106950;1276;24218;-68
2024/04/05 16:23:39;;;;;;;11.40;5.70;;;;;;;6.30;74.03;143810.14;106767;1276;24269;-68
2024/04/05 16:26:25;;;;;;;13.40;6.10;;;;;;;6.26;74.70;143800.63;106948;1276;22523;-66
2024/04/05 16:29:11;;;;;;;10.90;6.00;;;;;;;6.24;75.26;143794.13;106842;1275;22531;-62
2024/04/05 16:31:57;;;;;;;13.60;6.80;;;;;;;6.20;75.96;143785.66;106789;1261;22523;-70
2024/04/05 16:34:49;;;;;;;13.50;6.20;;;;;;;6.17;76.58;143778.41;106946;1276;24186;-67
2024/04/05 16:37:36;;;;;;;14.40;6.70;;;;;;;6.14;77.40;143769.89;107235;1260;22516;-64
2024/04/05 16:40:23;;;;;;;13.30;6.50;;;;;;;6.11;77.79;143762.91;106891;1269;22526;-70
2024/04/05 16:43:09;;;;;;;13.90;7.60;;;;;;;6.09;77.99;143758.63;106757;1276;24209;-65
2024/04/05 16:45:56;;;;;;;13.60;7.80;;;;;;;6.06;78.61;143751.39;106764;1276;22538;-67
2024/04/05 16:48:43;;;;;;;13.30;7.20;;;;;;;6.03;79.03;143744.66;107188;1269;25288;-65
2024/04/05 16:51:31;;;;;;;15.90;7.80;;;;;;;6.02;79.29;143740.41;106679;1276;25360;-68
2024/04/05 16:54:17;;;;;;;14.40;7.50;;;;;;;5.99;79.53;143733.41;106759;1276;22511;-65
2024/04/05 16:57:04;;;;;;;16.60;7.70;;;;;;;5.97;79.85;143727.66;106768;1276;22528;-65
2024/04/05 16:59:53;;;;;;;16.10;8.40;;;;;;;5.93;80.29;143718.13;106765;1269;25303;-65
2024/04/05 17:02:43;;;;;;;14.40;6.90;;;;;;;5.90;80.29;143711.59;106743;1276;22532;-68
2024/04/05 17:05:30;;;;;;;11.90;6.10;;;;;;;5.87;80.59;143705.63;106733;1276;22522;-68
2024/04/05 17:08:21;;;;;;;10.90;5.80;;;;;;;5.84;81.12;143698.63;106743;1276;22527;-67
2024/04/05 17:11:11;;;;;;;11.00;6.00;;;;;;;5.84;81.45;143696.63;106757;1276;25373;-65
2024/04/05 17:13:59;;;;;;;11.90;6.00;;;;;;;5.83;82.07;143694.88;106743;1276;22539;-67
2024/04/05 17:16:46;;;;;;;13.30;5.20;;;;;;;5.83;82.49;143694.38;106568;1277;22534;-63
2024/04/05 17:19:33;;;;;;;13.30;6.40;;;;;;;5.84;82.89;143696.86;106674;1265;22534;-64
2024/04/05 17:22:20;;;;;;;11.80;6.10;;;;;;;5.86;83.07;143702.63;106686;1266;22538;-65
2024/04/05 17:25:06;;;;;;;9.80;5.90;;;;;;;5.86;83.23;143702.38;106715;1277;24275;-63
2024/04/05 17:27:53;;;;;;;12.10;6.30;;;;;;;5.86;83.36;143701.63;106694;1277;24221;-65
2024/04/05 17:30:41;;;;;;;13.20;6.50;;;;;;;5.84;83.65;143698.63;106666;1269;22591;-64
2024/04/05 17:33:28;;;;;;;12.80;7.00;;;;;;;5.82;83.79;143694.13;106714;1277;24663;-70
2024/04/05 17:36:15;;;;;;;12.70;6.90;;;;;;;5.80;84.16;143686.63;106674;1277;22536;-62
2024/04/05 17:39:01;;;;;;;16.80;8.20;;;;;;;5.75;84.62;143675.88;106684;1278;25275;-68
2024/04/05 17:41:47;;;;;;;16.90;10.30;;;;;;;5.71;85.06;143665.41;106788;1268;22544;-68
2024/04/05 17:44:33;;;;;;;18.00;11.10;;;;;;;5.67;85.45;143655.41;106785;1276;22530;-62
2024/04/05 17:47:20;;;;;;;19.20;10.50;;;;;;;5.63;85.87;143645.91;106944;1258;22551;-63
2024/04/05 17:50:07;;;;;;;20.50;10.50;;;;;;;5.60;86.49;143638.91;106994;1270;25495;-63
2024/04/05 17:52:53;;;;;;;17.40;9.50;;;;;;;5.59;87.25;143636.16;106755;1276;22602;-65
2024/04/05 17:55:40;;;;;;;17.30;11.10;;;;;;;5.57;87.58;143630.92;106666;1275;25264;-65
2024/04/05 17:58:27;;;;;;;17.90;10.40;;;;;;;5.55;87.99;143627.19;106919;1275;25255;-68
2024/04/05 18:01:17;;;;;;;17.40;9.50;;;;;;;5.54;88.56;143622.92;106955;1275;24290;-67
2024/04/05 18:04:03;;;;;;;20.40;12.20;;;;;;;5.51;88.79;143616.67;106942;1253;24372;-65
2024/04/05 18:06:51;;;;;;;19.50;11.60;;;;;;;5.48;89.31;143608.19;106797;1257;22650;-63
2024/04/05 18:09:37;;;;;;;20.90;10.90;;;;;;;5.42;89.51;143594.19;106949;1275;25367;-65
2024/04/05 18:12:24;;;;;;;22.40;9.50;;;;;;;5.36;89.92;143581.45;106934;1275;24265;-61
2024/04/05 18:15:12;;;;;;;18.00;9.30;;;;;;;5.31;90.31;143568.72;106976;1275;22524;-65
2024/04/05 18:18:00;;;;;;;14.00;8.90;;;;;;;5.29;90.68;143562.50;106948;1260;22528;-63
2024/04/05 18:20:47;;;;;;;16.80;9.30;;;;;;;5.30;90.82;143565.97;106761;1275;24265;-69
2024/04/05 18:23:33;;;;;;;17.30;7.80;;;;;;;5.29;91.21;143563.75;106937;1275;22535;-66
2024/04/05 18:26:19;;;;;;;17.30;8.30;;;;;;;5.29;91.22;143561.97;107247;1275;22529;-64
2024/04/05 18:29:06;;;;;;;13.00;6.50;;;;;;;5.26;91.27;143555.47;107294;1275;25252;-68
2024/04/05 18:31:55;;;;;;;13.60;6.90;;;;;;;5.23;91.61;143549.48;107122;1258;22555;-64
2024/04/05 18:34:46;;;;;;;13.00;6.60;;;;;;;5.20;91.90;143541.25;107115;1275;22529;-66
2024/04/05 18:37:33;;;;;;;11.20;6.30;;;;;;;5.15;92.24;143529.75;107241;1275;25415;-64
2024/04/05 18:40:20;;;;;;;11.10;5.60;;;;;;;5.11;92.41;143519.27;106933;1275;22527;-65
2024/04/05 18:43:13;;;;;;;11.50;6.20;;;;;;;5.08;92.75;143512.28;106999;1275;22770;-67
2024/04/05 18:46:01;;;;;;;10.60;6.10;;;;;;;5.04;93.25;143502.03;106832;1276;23882;-67
2024/04/05 18:48:47;;;;;;;11.60;6.20;;;;;;;4.98;93.55;143489.05;106774;1276;24265;-64
2024/04/05 18:51:39;;;;;;;12.50;6.90;;;;;;;4.92;93.92;143473.08;106768;1276;25347;-65
2024/04/05 18:54:27;;;;;;;9.10;5.50;;;;;;;4.83;94.47;143450.61;106750;1276;22527;-68
2024/04/05 18:57:20;;;;;;;12.90;6.30;;;;;;;4.76;95.06;143433.63;106688;1269;22546;-68
2024/04/05 19:00:15;;;;;;;10.60;6.30;;;;;;;4.70;96.15;143419.16;106747;1276;22520;-62
2024/04/05 19:03:03;;;;;;;15.30;6.00;;;;;;;4.67;96.77;143410.42;106803;1259;22541;-63
2024/04/05 19:05:50;;;;;;;15.00;6.30;;;;;;;4.65;97.14;143405.92;106778;1276;25413;-63
2024/04/05 19:08:37;;;;;;;12.80;6.60;;;;;;;4.62;97.36;143398.70;106797;1276;25387;-67
2024/04/05 19:11:24;;;;;;;11.40;6.20;;;;;;;4.57;98.02;143387.47;106772;1264;22533;-63
2024/04/05 19:14:13;;;;;;;11.60;6.10;;;;;;;4.51;98.33;143373.97;106791;1270;22519;-62
2024/04/05 19:17:00;;;;;;;11.30;6.10;;;;;;;4.46;98.75;143360.00;106771;1276;22530;-67
2024/04/05 19:19:47;;;;;;;9.60;5.60;;;;;;;4.40;99.38;143347.03;106763;1276;25416;-68
2024/04/05 19:22:33;;;;;;;9.70;5.10;;;;;;;4.38;99.93;143339.05;106769;1276;24242;-67
2024/04/05 19:25:20;;;;;;;9.20;5.30;;;;;;;4.37;100.00;143337.80;106956;1276;22530;-63
2024/04/05 19:28:09;;;;;;;12.10;6.00;;;;;;;4.39;100.00;143343.78;107097;1276;25297;-65
2024/04/05 19:30:56;;;;;;;10.50;6.30;;;;;;;4.40;100.00;143344.78;106796;1276;25376;-68
2024/04/05 19:33:43;;;;;;;12.60;6.90;;;;;;;4.40;100.00;143345.28;106714;1269;22522;-67
2024/04/05 19:36:31;;;;;;;11.50;7.10;;;;;;;4.39;100.00;143344.28;106693;1269;22752;-64
2024/04/05 19:39:17;;;;;;;15.60;8.60;;;;;;;4.38;100.00;143340.78;106732;1276;22654;-66
2024/04/05 19:42:04;;;;;;;17.30;8.70;;;;;;;4.35;100.00;143334.80;106761;1276;22594;-69
2024/04/05 19:44:51;;;;;;;14.70;8.10;;;;;;;4.35;100.00;143333.03;106673;1257;25362;-67
2024/04/05 19:47:38;;;;;;;13.30;8.70;;;;;;;4.37;100.00;143339.28;106703;1276;25481;-61
2024/04/05 19:50:25;;;;;;;17.40;9.60;;;;;;;4.41;100.00;143347.78;106791;1276;22546;-65
2024/04/05 19:53:11;;;;;;;15.80;9.30;;;;;;;4.43;100.00;143353.03;106839;1276;24285;-69
2024/04/05 19:55:57;;;;;;;16.10;9.40;;;;;;;4.44;100.00;143355.75;106821;1276;22544;-66
2024/04/05 19:58:43;;;;;;;14.60;8.70;;;;;;;4.42;100.00;143351.28;106826;1276;22667;-64
2024/04/05 20:01:30;;;;;;;15.30;8.80;;;;;;;4.40;100.00;143345.03;106785;1276;22524;-63
2024/04/05 20:04:16;;;;;;;14.30;8.30;;;;;;;4.36;100.00;143335.28;106774;1276;25246;-65
2024/04/05 20:07:03;;;;;;;15.00;7.70;;;;;;;4.32;100.00;143327.56;106720;1261;24245;-67
2024/04/05 20:09:50;;;;;;;15.60;7.60;;;;;;;4.31;100.00;143323.33;106763;1260;22547;-70
2024/04/05 20:12:36;;;;;;;13.20;6.70;;;;;;;4.27;100.00;143314.33;106749;1276;26548;-66
2024/04/05 20:15:22;;;;;;;13.30;7.50;;;;;;;4.21;100.00;143298.88;106775;1261;22527;-63
2024/04/05 20:18:09;;;;;;;16.80;7.80;;;;;;;4.13;100.00;143281.14;106769;1276;24220;-66
2024/04/05 20:20:55;;;;;;;14.50;8.40;;;;;;;4.05;100.00;143261.69;106793;1275;22540;-65
2024/04/05 20:23:42;;;;;;;14.30;7.60;;;;;;;3.97;100.00;143241.47;106743;1260;22519;-62
2024/04/05 20:26:32;;;;;;;16.20;7.70;;;;;;;3.90;100.00;143223.03;106704;1276;22537;-65
2024/04/05 20:32:33;;;;;;;12.80;7.00;;;;;;;3.77;100.00;143192.58;106765;1276;22536;-65
2024/04/05 20:35:19;;;;;;;14.30;7.30;;;;;;;3.72;100.00;143179.38;107150;1269;24215;-68
2024/04/05 20:38:06;;;;;;;15.30;8.70;;;;;;;3.66;100.00;143166.66;106717;1260;22648;-66
2024/04/05 20:40:52;;;;;;;13.10;7.40;;;;;;;3.61;100.00;143153.19;106762;1275;22544;-64
2024/04/05 20:43:38;;;;;;;16.50;7.80;;;;;;;3.55;100.00;143139.47;106778;1275;22566;-66
2024/04/05 20:46:25;;;;;;;13.80;7.60;;;;;;;3.52;100.00;143131.22;106767;1275;22547;-66
2024/04/05 20:49:11;;;;;;;17.30;8.00;;;;;;;3.48;100.00;143121.75;106963;1275;25410;-63
2024/04/05 20:51:58;;;;;;;14.30;8.20;;;;;;;3.45;100.00;143114.52;106962;1258;22533;-68
2024/04/05 20:54:44;;;;;;;16.10;8.60;;;;;;;3.41;100.00;143104.80;106962;1275;24215;-66
2024/04/05 20:57:30;;;;;;;16.40;8.50;;;;;;;3.38;100.00;143095.58;106756;1258;22669;-68
2024/04/05 21:00:17;;;;;;;13.90;8.00;;;;;;;3.33;100.00;143083.63;106740;1275;22639;-64
2024/04/05 21:03:04;;;;;;;15.70;8.80;;;;;;;3.27;100.00;143071.38;106960;1260;22531;-65
2024/04/05 21:05:51;;;;;;;17.00;8.70;;;;;;;3.26;100.00;143068.41;106975;1254;22625;-66
2024/04/05 21:08:38;;;;;;;17.50;8.20;;;;;;;3.26;100.00;143069.41;106764;1275;22552;-64
2024/04/05 21:11:25;;;;;;;16.50;9.10;;;;;;;3.30;100.00;143075.89;106956;1275;22555;-65
2024/04/05 21:14:12;;;;;;;15.10;9.10;;;;;;;3.32;100.00;143082.09;106758;1273;22502;-67
2024/04/05 21:16:59;;;;;;;17.60;9.70;;;;;;;3.34;100.00;143086.09;106968;1275;22531;-62
2024/04/05 21:19:45;;;;;;;15.20;8.50;;;;;;;3.37;100.00;143093.58;106948;1275;24236;-69
2024/04/05 21:22:42;;;;;;;14.50;7.40;;;;;;;3.41;100.00;143103.56;106989;1275;25341;-65
2024/04/05 21:25:28;;;;;;;16.50;8.40;;;;;;;3.45;100.00;143114.03;107009;1269;25380;-64
2024/04/05 21:28:15;;;;;;;14.40;7.90;;;;;;;3.49;100.00;143123.25;106754;1276;22672;-69
2024/04/05 21:31:01;;;;;;;13.10;6.60;;;;;;;3.48;100.00;143122.25;106770;1276;22528;-64
2024/04/05 21:33:47;;;;;;;13.40;6.80;;;;;;;3.50;100.00;143127.00;106921;1269;22540;-62
2024/04/05 21:36:33;;;;;;;9.50;5.90;;;;;;;3.52;100.00;143131.00;106928;1276;24215;-65
2024/04/05 21:39:20;;;;;;;14.30;6.70;;;;;;;3.55;100.00;143139.97;106931;1276;22982;-65
2024/04/05 21:42:11;;;;;;;8.40;5.30;;;;;;;3.56;100.00;143141.72;106956;1275;22603;-70
2024/04/05 21:44:57;;;;;;;12.00;6.30;;;;;;;3.58;100.00;143146.44;106708;1276;22524;-67
2024/04/05 21:47:44;;;;;;;11.10;5.70;;;;;;;3.59;100.00;143147.47;106957;1276;24286;-64
2024/04/05 21:50:31;;;;;;;9.10;4.50;;;;;;;3.57;100.00;143144.45;106920;1276;25298;-70
2024/04/05 21:53:38;;;;;;;11.70;4.80;;;;;;;3.59;100.00;143148.69;106955;1276;23873;-68
2024/04/05 21:56:24;;;;;;;10.30;4.80;;;;;;;3.62;100.00;143155.42;106756;1276;25375;-61
2024/04/05 21:59:10;;;;;;;8.20;4.90;;;;;;;3.64;100.00;143161.17;107178;1269;25304;-64
2024/04/05 22:01:56;;;;;;;7.80;4.30;;;;;;;3.68;100.00;143170.41;107039;1257;22524;-63
2024/04/05 22:04:43;;;;;;;8.90;5.30;;;;;;;3.71;100.00;143176.88;106986;1269;22521;-71
2024/04/05 22:07:29;;;;;;;8.20;4.50;;;;;;;3.73;100.00;143183.38;107024;1269;25742;-66
2024/04/05 22:10:15;;;;;;;7.50;4.20;;;;;;;3.74;100.00;143184.84;106724;1275;24413;-68
2024/04/05 22:13:03;;;;;;;9.00;4.80;;;;;;;3.77;100.00;143191.84;106869;1275;22522;-70
2024/04/05 22:15:50;;;;;;;8.50;4.90;;;;;;;3.79;100.00;143197.83;106945;1275;25372;-65
2024/04/05 22:18:36;;;;;;;9.40;4.70;;;;;;;3.80;100.00;143200.06;106972;1275;25445;-69
2024/04/05 22:21:23;;;;;;;9.40;4.50;;;;;;;3.81;100.00;143200.81;107009;1275;22531;-62
2024/04/05 22:24:09;;;;;;;7.60;4.20;;;;;;;3.82;100.00;143203.09;106827;1275;22539;-62
2024/04/05 22:26:55;;;;;;;10.00;4.80;;;;;;;3.82;100.00;143204.33;106932;1270;23902;-65
2024/04/05 22:29:42;;;;;;;9.30;4.10;;;;;;;3.85;100.00;143210.81;106750;1275;22533;-65
2024/04/05 22:32:28;;;;;;;9.60;4.70;;;;;;;3.87;100.00;143216.30;106742;1275;22537;-65
2024/04/05 22:35:14;;;;;;;8.70;4.70;;;;;;;3.87;100.00;143216.55;106753;1275;22533;-60
2024/04/05 22:38:00;;;;;;;12.10;4.70;;;;;;;3.87;100.00;143216.55;106753;1275;22524;-66
2024/04/05 22:40:46;;;;;;;7.10;4.30;;;;;;;3.86;100.00;143214.81;106760;1275;22537;-67
2024/04/05 22:43:33;;;;;;;8.90;4.80;;;;;;;3.85;100.00;143210.80;106764;1275;22638;-68
2024/04/05 22:46:20;;;;;;;7.70;4.70;;;;;;;3.84;100.00;143207.78;106761;1275;23035;-67
2024/04/05 22:49:06;;;;;;;6.60;4.20;;;;;;;3.82;100.00;143204.34;106761;1275;22543;-68
2024/04/05 22:51:52;;;;;;;7.50;4.20;;;;;;;3.83;100.00;143207.55;106744;1275;25250;-63
2024/04/05 22:54:39;;;;;;;9.70;4.60;;;;;;;3.83;100.00;143205.81;106772;1275;22523;-65
2024/04/05 22:57:25;;;;;;;8.00;4.40;;;;;;;3.83;100.00;143207.55;106835;1275;22525;-60
2024/04/05 23:00:12;;;;;;;7.50;4.20;;;;;;;3.83;100.00;143206.81;106810;1275;22530;-65
2024/04/05 23:02:59;;;;;;;7.30;4.60;;;;;;;3.82;100.00;143204.08;106720;1275;25341;-62
2024/04/05 23:05:45;;;;;;;8.80;4.60;;;;;;;3.83;100.00;143205.58;106758;1259;22523;-64
2024/04/05 23:08:31;;;;;;;7.80;4.50;;;;;;;3.85;100.00;143210.30;106750;1275;25252;-66
2024/04/05 23:11:18;;;;;;;7.90;4.70;;;;;;;3.86;100.00;143214.28;106760;1275;22535;-65
2024/04/05 23:14:04;;;;;;;7.80;4.40;;;;;;;3.85;100.00;143212.53;106805;1275;22764;-70
2024/04/05 23:16:51;;;;;;;8.40;4.50;;;;;;;3.83;100.00;143206.80;106769;1275;22520;-68
2024/04/05 23:19:37;;;;;;;10.20;4.70;;;;;;;3.79;100.00;143197.08;106755;1275;22523;-65
2024/04/05 23:22:23;;;;;;;8.50;4.30;;;;;;;3.76;100.00;143190.09;106782;1275;22523;-67
2024/04/05 23:25:11;;;;;;;7.70;4.40;;;;;;;3.73;100.00;143180.88;106778;1275;22612;-67
2024/04/05 23:27:58;;;;;;;7.70;4.30;;;;;;;3.66;100.00;143165.66;106780;1275;25375;-65
2024/04/05 23:30:44;;;;;;;8.40;4.40;;;;;;;3.59;100.00;143147.69;106753;1270;24450;-67
2024/04/05 23:33:31;;;;;;;7.60;4.70;;;;;;;3.50;100.00;143126.50;106750;1275;24283;-65
2024/04/05 23:36:18;;;;;;;8.40;4.80;;;;;;;3.40;100.00;143102.56;106749;1276;23762;-67
2024/04/05 23:39:04;;;;;;;7.30;4.60;;;;;;;3.32;100.00;143082.13;106734;1260;22647;-64
2024/04/05 23:41:50;;;;;;;7.00;4.00;;;;;;;3.26;100.00;143068.41;106726;1275;25369;-66
2024/04/05 23:44:36;;;;;;;6.60;4.50;;;;;;;3.21;100.00;143056.42;106739;1275;22534;-65
2024/04/05 23:47:24;;;;;;;7.50;4.60;;;;;;;3.16;100.00;143043.22;106943;1269;22694;-67
2024/04/05 23:50:11;;;;;;;9.20;5.20;;;;;;;3.09;100.00;143025.78;107022;1275;22534;-64
2024/04/05 23:52:57;;;;;;;8.30;4.50;;;;;;;3.02;100.00;143011.08;106777;1275;25379;-62
2024/04/05 23:55:43;;;;;;;7.00;4.60;;;;;;;2.96;100.00;142995.13;106753;1275;24199;-67
2024/04/05 23:58:29;;;;;;;8.20;4.60;;;;;;;2.89;100.00;142978.67;106767;1275;24218;-66
